createdAt,value
2022-09-09T00:00:28.343Z,12.43
2022-09-09T00:03:06.081Z,18.70
2022-09-09T00:05:41.552Z,7.90
2022-09-09T00:08:19.637Z,12.55
2022-09-09T00:10:52.428Z,13.00
2022-09-09T00:13:25.470Z,12.82
2022-09-09T00:16:00.414Z,10.27
2022-09-09T00:18:35.053Z,10.90
2022-09-09T00:21:08.667Z,15.43
2022-09-09T00:23:41.463Z,13.25
2022-09-09T00:26:14.677Z,13.15
2022-09-09T00:28:57.046Z,12.93
2022-09-09T00:31:29.614Z,11.88
2022-09-09T00:34:03.785Z,16.33
2022-09-09T00:36:33.892Z,12.30
2022-09-09T00:39:04.999Z,17.73
2022-09-09T00:44:15.152Z,13.75
2022-09-09T00:46:56.869Z,13.35
2022-09-09T00:49:37.071Z,13.40
2022-09-09T00:52:15.369Z,13.02
2022-09-09T00:54:50.455Z,13.25
2022-09-09T00:57:26.200Z,19.08
2022-09-09T00:59:59.641Z,13.35
2022-09-09T01:02:31.030Z,14.45
2022-09-09T01:05:06.742Z,18.33
2022-09-09T01:07:35.503Z,16.13
2022-09-09T01:10:06.509Z,15.65
2022-09-09T01:12:42.858Z,14.25
2022-09-09T01:15:17.393Z,17.42
2022-09-09T01:18:01.235Z,14.45
2022-09-09T01:20:40.741Z,18.20
2022-09-09T01:23:28.216Z,15.52
2022-09-09T01:26:29.700Z,18.30
2022-09-09T01:29:01.664Z,16.58
2022-09-09T01:31:40.148Z,13.25
2022-09-09T01:34:13.154Z,16.00
2022-09-09T01:36:45.438Z,16.88
2022-09-09T01:39:14.866Z,17.83
2022-09-09T01:41:45.678Z,18.38
2022-09-09T01:44:16.002Z,15.77
2022-09-09T01:46:46.857Z,15.95
2022-09-09T01:49:20.619Z,22.42
2022-09-09T01:51:51.606Z,15.48
2022-09-09T01:54:22.172Z,18.20
2022-09-09T01:57:00.641Z,13.65
2022-09-09T01:59:43.802Z,16.48
2022-09-09T02:02:14.423Z,14.40
2022-09-09T02:04:56.271Z,14.93
2022-09-09T02:07:37.912Z,18.00
2022-09-09T02:10:13.486Z,16.17
2022-09-09T02:12:56.080Z,26.63
2022-09-09T02:15:34.901Z,27.98
2022-09-09T02:18:08.962Z,231.88
2022-09-09T02:20:40.796Z,438.15
2022-09-09T02:23:11.142Z,141.52
2022-09-09T02:25:42.831Z,133.63
2022-09-09T02:28:22.901Z,240.40
2022-09-09T02:30:56.292Z,138.18
2022-09-09T02:33:35.888Z,86.05
2022-09-09T02:36:07.812Z,47.70
2022-09-09T02:38:41.332Z,31.92
2022-09-09T02:41:14.280Z,24.67
2022-09-09T02:43:44.331Z,29.35
2022-09-09T02:46:29.207Z,23.92
2022-09-09T02:49:03.017Z,24.30
2022-09-09T02:51:42.600Z,20.73
2022-09-09T02:54:19.098Z,20.55
2022-09-09T02:56:52.202Z,21.17
2022-09-09T02:59:25.041Z,20.70
2022-09-09T03:01:54.516Z,20.73
2022-09-09T03:04:26.039Z,20.33
2022-09-09T03:06:54.783Z,18.98
2022-09-09T03:09:23.934Z,17.80
2022-09-09T03:11:52.719Z,18.25
2022-09-09T03:14:27.802Z,19.83
2022-09-09T03:16:57.517Z,15.95
2022-09-09T03:19:27.159Z,13.93
2022-09-09T03:21:55.872Z,21.77
2022-09-09T03:24:25.813Z,19.20
2022-09-09T03:26:54.580Z,13.77
2022-09-09T03:29:24.709Z,12.98
2022-09-09T03:31:56.491Z,13.15
2022-09-09T03:34:25.365Z,14.40
2022-09-09T03:36:54.168Z,14.23
2022-09-09T03:39:23.158Z,13.82
2022-09-09T03:41:51.949Z,13.70
2022-09-09T03:44:21.079Z,16.80
2022-09-09T03:46:50.817Z,14.88
2022-09-09T03:49:21.292Z,16.38
2022-09-09T03:51:50.417Z,14.07
2022-09-09T03:54:19.120Z,17.60
2022-09-09T03:56:47.839Z,11.35
2022-09-09T03:59:17.409Z,12.10
2022-09-09T04:01:46.519Z,11.43
2022-09-09T04:04:16.774Z,14.57
2022-09-09T04:06:46.463Z,14.32
2022-09-09T04:09:15.269Z,12.85
2022-09-09T04:11:44.445Z,13.68
2022-09-09T04:14:13.875Z,12.63
2022-09-09T04:16:44.391Z,11.57
2022-09-09T04:19:14.665Z,12.45
2022-09-09T04:21:46.641Z,17.00
2022-09-09T04:24:17.419Z,13.85
2022-09-09T04:26:46.649Z,14.02
2022-09-09T04:29:15.661Z,15.43
2022-09-09T04:31:44.267Z,13.65
2022-09-09T04:34:13.053Z,12.15
2022-09-09T04:36:42.473Z,14.80
2022-09-09T04:39:13.125Z,13.93
2022-09-09T04:41:41.866Z,12.68
2022-09-09T04:44:12.487Z,13.02
2022-09-09T04:46:42.461Z,12.45
2022-09-09T04:49:15.165Z,14.45
2022-09-09T04:51:45.455Z,13.05
2022-09-09T04:54:16.712Z,14.07
2022-09-09T04:56:47.322Z,11.05
2022-09-09T04:59:16.331Z,14.43
2022-09-09T05:01:48.571Z,10.98
2022-09-09T05:04:17.489Z,12.35
2022-09-09T05:06:46.979Z,14.10
2022-09-09T05:09:18.740Z,10.05
2022-09-09T05:11:50.020Z,12.50
2022-09-09T05:14:32.946Z,11.48
2022-09-09T05:17:03.421Z,9.90
2022-09-09T05:19:32.270Z,13.07
2022-09-09T05:22:02.247Z,13.38
2022-09-09T05:24:40.048Z,11.68
2022-09-09T05:27:13.213Z,12.38
2022-09-09T05:29:45.648Z,11.05
2022-09-09T05:32:16.590Z,13.15
2022-09-09T05:34:48.548Z,13.15
2022-09-09T05:37:18.096Z,13.03
2022-09-09T05:39:48.527Z,9.65
2022-09-09T05:42:18.222Z,10.27
2022-09-09T05:44:47.137Z,10.43
2022-09-09T05:47:16.369Z,14.70
2022-09-09T05:49:44.995Z,17.10
2022-09-09T05:52:13.715Z,10.68
2022-09-09T05:54:42.733Z,13.10
2022-09-09T05:57:13.050Z,11.63
2022-09-09T05:59:42.099Z,13.27
2022-09-09T06:02:11.298Z,11.75
2022-09-09T06:04:39.949Z,15.63
2022-09-09T06:07:08.753Z,13.13
2022-09-09T06:09:38.061Z,13.02
2022-09-09T06:12:07.532Z,11.25
2022-09-09T06:14:41.161Z,13.75
2022-09-09T06:17:13.322Z,11.75
2022-09-09T06:19:41.808Z,11.82
2022-09-09T06:22:13.737Z,10.35
2022-09-09T06:24:43.551Z,10.77
2022-09-09T06:27:14.689Z,10.00
2022-09-09T06:29:45.635Z,11.23
2022-09-09T06:32:14.858Z,14.68
2022-09-09T06:34:43.222Z,14.75
2022-09-09T06:37:12.687Z,11.70
2022-09-09T06:39:49.510Z,10.23
2022-09-09T06:42:20.735Z,10.50
2022-09-09T06:45:25.227Z,10.18
2022-09-09T06:47:59.914Z,12.68
2022-09-09T06:50:29.460Z,11.57
2022-09-09T06:52:58.389Z,12.95
2022-09-09T06:55:27.415Z,13.38
2022-09-09T06:57:56.216Z,11.35
2022-09-09T07:00:27.314Z,13.67
2022-09-09T07:02:56.196Z,10.68
2022-09-09T07:05:27.191Z,11.68
2022-09-09T07:07:55.802Z,10.18
2022-09-09T07:10:25.347Z,13.43
2022-09-09T07:12:54.588Z,12.02
2022-09-09T07:15:27.683Z,14.43
2022-09-09T07:17:57.491Z,13.23
2022-09-09T07:20:26.734Z,14.43
2022-09-09T07:22:57.727Z,13.70
2022-09-09T07:25:27.873Z,18.45
2022-09-09T07:27:56.873Z,14.75
2022-09-09T07:30:27.774Z,14.27
2022-09-09T07:33:00.328Z,13.63
2022-09-09T07:35:30.171Z,14.75
2022-09-09T07:37:59.327Z,15.27
2022-09-09T07:40:28.117Z,14.40
2022-09-09T07:42:57.215Z,15.05
2022-09-09T07:45:26.198Z,13.82
2022-09-09T07:47:55.172Z,13.48
2022-09-09T07:50:25.763Z,15.32
2022-09-09T07:52:54.893Z,15.20
2022-09-09T07:55:26.329Z,17.08
2022-09-09T07:57:55.594Z,22.10
2022-09-09T08:00:25.054Z,18.55
2022-09-09T08:02:58.127Z,17.02
2022-09-09T08:05:28.564Z,19.17
2022-09-09T08:07:58.406Z,18.52
2022-09-09T08:10:27.095Z,23.15
2022-09-09T08:13:16.735Z,18.63
2022-09-09T08:15:46.299Z,21.90
2022-09-09T08:18:15.654Z,21.98
2022-09-09T08:20:45.913Z,18.33
2022-09-09T08:23:14.595Z,20.55
2022-09-09T08:25:42.947Z,20.77
2022-09-09T08:28:11.755Z,23.65
2022-09-09T08:30:41.607Z,22.20
2022-09-09T08:33:11.953Z,23.02
2022-09-09T08:35:40.700Z,23.08
2022-09-09T08:38:11.259Z,22.95
2022-09-09T08:40:45.344Z,20.15
2022-09-09T08:43:14.433Z,22.38
2022-09-09T08:45:52.708Z,20.75
2022-09-09T08:48:35.105Z,23.55
2022-09-09T08:51:04.325Z,20.25
2022-09-09T08:53:42.004Z,23.90
2022-09-09T08:56:14.061Z,19.58
2022-09-09T08:58:50.019Z,21.25
2022-09-09T09:01:38.418Z,21.17
2022-09-09T09:04:18.615Z,23.33
2022-09-09T09:06:53.489Z,24.15
2022-09-09T09:09:31.511Z,25.40
2022-09-09T09:12:04.061Z,25.00
2022-09-09T09:14:40.201Z,28.08
2022-09-09T09:17:15.654Z,27.02
2022-09-09T09:19:45.453Z,28.45
2022-09-09T09:22:21.204Z,28.77
2022-09-09T09:24:57.482Z,27.08
2022-09-09T09:27:33.913Z,23.65
2022-09-09T09:30:26.884Z,31.30
2022-09-09T09:32:57.634Z,26.05
2022-09-09T09:35:27.415Z,32.28
2022-09-09T09:40:53.083Z,25.63
2022-09-09T09:43:24.631Z,27.20
2022-09-09T09:46:14.282Z,30.67
2022-09-09T09:48:43.173Z,27.08
2022-09-09T09:51:15.040Z,28.80
2022-09-09T09:53:45.050Z,28.38
2022-09-09T09:56:17.313Z,31.13
2022-09-09T09:58:52.580Z,27.55
2022-09-09T10:01:28.266Z,40.15
2022-09-09T10:03:59.713Z,33.58
2022-09-09T10:06:34.228Z,28.77
2022-09-09T10:09:05.438Z,33.65
2022-09-09T10:11:45.113Z,32.75
2022-09-09T10:14:20.682Z,41.33
2022-09-09T10:16:57.106Z,42.03
2022-09-09T10:19:32.544Z,36.72
2022-09-09T10:22:17.710Z,32.90
2022-09-09T10:25:17.170Z,34.20
2022-09-09T10:28:03.952Z,40.38
2022-09-09T10:30:44.728Z,37.17
2022-09-09T10:33:20.195Z,39.60
2022-09-09T10:35:55.086Z,35.47
2022-09-09T10:38:30.743Z,38.78
2022-09-09T10:41:12.668Z,42.05
2022-09-09T10:43:55.455Z,38.58
2022-09-09T10:46:33.565Z,40.38
2022-09-09T10:49:10.980Z,52.83
2022-09-09T10:51:45.065Z,41.90
2022-09-09T10:54:27.135Z,38.95
2022-09-09T10:56:59.157Z,48.15
2022-09-09T10:59:31.874Z,45.70
2022-09-09T11:02:03.694Z,46.53
2022-09-09T11:04:36.918Z,47.40
2022-09-09T11:07:12.367Z,43.90
2022-09-09T11:09:52.728Z,43.70
2022-09-09T11:12:27.899Z,45.57
2022-09-09T11:15:04.726Z,49.72
2022-09-09T11:17:41.730Z,43.97
2022-09-09T11:20:14.353Z,43.15
2022-09-09T11:22:52.171Z,47.10
2022-09-09T11:25:23.747Z,44.35
2022-09-09T11:28:10.542Z,55.53
2022-09-09T11:30:56.608Z,41.03
2022-09-09T11:33:53.405Z,45.38
2022-09-09T11:36:38.106Z,47.58
2022-09-09T11:39:31.190Z,43.60
2022-09-09T11:42:09.509Z,45.28
2022-09-09T11:44:39.655Z,45.25
2022-09-09T11:47:24.241Z,48.22
2022-09-09T11:49:53.468Z,47.53
2022-09-09T11:52:40.252Z,50.63
2022-09-09T11:55:28.139Z,46.53
2022-09-09T11:58:01.294Z,55.67
2022-09-09T12:00:36.721Z,52.42
2022-09-09T12:03:08.139Z,58.22
2022-09-09T12:05:41.921Z,52.58
2022-09-09T12:08:12.533Z,52.10
2022-09-09T12:10:42.344Z,54.85
2022-09-09T12:13:18.352Z,58.97
2022-09-09T12:15:50.863Z,54.08
2022-09-09T12:18:26.453Z,60.60
2022-09-09T12:21:01.896Z,67.43
2022-09-09T12:23:38.910Z,60.83
2022-09-09T12:26:31.692Z,56.80
2022-09-09T12:29:09.165Z,63.72
2022-09-09T12:31:45.704Z,61.28
2022-09-09T12:34:20.682Z,54.92
2022-09-09T12:36:54.618Z,60.08
2022-09-09T12:39:30.371Z,56.00
2022-09-09T12:41:59.129Z,60.15
2022-09-09T12:44:29.832Z,51.13
2022-09-09T12:49:32.173Z,65.72
2022-09-09T12:52:02.281Z,58.30
2022-09-09T12:54:31.208Z,54.42
2022-09-09T12:56:59.969Z,57.60
2022-09-09T12:59:37.205Z,62.15
2022-09-09T13:02:20.713Z,57.33
2022-09-09T13:04:51.703Z,56.88
2022-09-09T13:07:21.166Z,52.42
2022-09-09T13:09:51.288Z,67.07
2022-09-09T13:12:23.616Z,54.35
2022-09-09T13:14:55.469Z,58.95
2022-09-09T13:17:25.296Z,61.75
2022-09-09T13:19:56.751Z,65.68
2022-09-09T13:22:31.372Z,66.35
2022-09-09T13:25:05.441Z,60.55
2022-09-09T13:27:36.226Z,55.85
2022-09-09T13:30:23.836Z,57.42
2022-09-09T13:33:03.399Z,58.25
2022-09-09T13:35:34.882Z,58.45
2022-09-09T13:38:10.826Z,58.97
2022-09-09T13:40:40.644Z,60.95
2022-09-09T13:43:20.055Z,60.53
2022-09-09T13:45:55.602Z,69.10
2022-09-09T13:48:24.896Z,58.92
2022-09-09T13:50:59.512Z,64.53
2022-09-09T13:53:28.543Z,68.28
2022-09-09T13:55:58.049Z,68.63
2022-09-09T13:58:27.411Z,64.65
2022-09-09T14:00:56.208Z,66.55
2022-09-09T14:03:25.198Z,72.25
2022-09-09T14:05:54.864Z,77.75
2022-09-09T14:08:27.646Z,74.87
2022-09-09T14:10:59.484Z,72.68
2022-09-09T14:13:28.201Z,80.30
2022-09-09T14:15:57.736Z,78.13
2022-09-09T14:18:26.581Z,79.87
2022-09-09T14:20:55.416Z,66.28
2022-09-09T14:23:25.607Z,63.55
2022-09-09T14:25:54.106Z,65.78
2022-09-09T14:28:45.149Z,61.05
2022-09-09T14:31:11.942Z,62.00
2022-09-09T14:33:40.794Z,53.00
2022-09-09T14:36:09.843Z,63.75
2022-09-09T14:38:41.036Z,54.53
2022-09-09T14:41:10.099Z,59.15
2022-09-09T14:43:40.003Z,58.97
2022-09-09T14:46:09.733Z,61.67
2022-09-09T14:48:41.703Z,59.60
2022-09-09T14:51:13.794Z,56.67
2022-09-09T14:53:47.487Z,57.15
2022-09-09T14:56:18.113Z,60.60
2022-09-09T15:01:17.280Z,55.83
2022-09-09T15:03:52.049Z,49.30
2022-09-09T15:06:21.984Z,47.40
2022-09-09T15:08:53.694Z,44.58
2022-09-09T15:11:25.790Z,56.58
2022-09-09T15:13:55.562Z,47.53
2022-09-09T15:16:26.138Z,49.13
2022-09-09T15:18:58.920Z,41.13
2022-09-09T15:21:29.333Z,47.70
2022-09-09T15:24:01.163Z,48.50
2022-09-09T15:29:00.933Z,47.45
2022-09-09T15:31:31.463Z,48.72
2022-09-09T15:34:02.715Z,48.00
2022-09-09T15:36:33.156Z,49.20
2022-09-09T15:39:06.128Z,46.47
2022-09-09T15:41:34.977Z,51.67
2022-09-09T15:44:04.347Z,49.97
2022-09-09T15:46:34.541Z,52.80
2022-09-09T15:49:06.753Z,52.42
2022-09-09T15:51:42.841Z,56.00
2022-09-09T15:54:15.427Z,47.28
2022-09-09T15:56:44.392Z,55.22
2022-09-09T15:59:14.754Z,53.28
2022-09-09T16:01:43.508Z,49.78
2022-09-09T16:04:12.444Z,54.08
2022-09-09T16:06:43.528Z,51.65
2022-09-09T16:09:13.788Z,56.67
2022-09-09T16:14:12.201Z,49.33
2022-09-09T16:16:41.896Z,49.67
2022-09-09T16:19:12.638Z,48.45
2022-09-09T16:21:43.476Z,50.72
2022-09-09T16:24:15.376Z,51.55
2022-09-09T16:26:46.371Z,43.70
2022-09-09T16:29:18.410Z,48.03
2022-09-09T16:34:16.633Z,53.00
2022-09-09T16:36:45.705Z,49.05
2022-09-09T16:39:19.831Z,47.92
2022-09-09T16:41:49.507Z,43.85
2022-09-09T16:44:20.544Z,53.50
2022-09-09T16:46:56.741Z,50.28
2022-09-09T16:49:30.455Z,49.80
2022-09-09T16:52:01.021Z,52.25
2022-09-09T16:54:31.242Z,51.28
2022-09-09T16:57:01.428Z,53.45
2022-09-09T16:59:30.140Z,57.78
2022-09-09T17:01:58.937Z,50.00
2022-09-09T17:04:29.656Z,50.13
2022-09-09T17:07:01.471Z,48.10
2022-09-09T17:09:32.625Z,49.47
2022-09-09T17:12:02.000Z,58.08
2022-09-09T17:14:32.265Z,53.88
2022-09-09T17:17:18.968Z,48.42
2022-09-09T17:19:51.625Z,44.70
2022-09-09T17:24:51.493Z,47.83
2022-09-09T17:27:20.420Z,46.67
2022-09-09T17:29:49.094Z,47.63
2022-09-09T17:32:17.869Z,46.47
2022-09-09T17:34:47.151Z,50.30
2022-09-09T17:37:15.979Z,44.78
2022-09-09T17:39:45.743Z,56.00
2022-09-09T17:42:21.706Z,54.50
2022-09-09T17:44:55.169Z,55.78
2022-09-09T17:47:46.533Z,56.10
2022-09-09T17:50:16.900Z,55.15
2022-09-09T17:52:47.589Z,49.40
2022-09-09T17:55:20.233Z,51.00
2022-09-09T17:57:50.465Z,51.03
2022-09-09T18:00:20.571Z,55.10
2022-09-09T18:02:49.924Z,49.22
2022-09-09T18:05:19.356Z,50.20
2022-09-09T18:07:49.101Z,51.10
2022-09-09T18:10:18.207Z,53.65
2022-09-09T18:12:47.292Z,51.08
2022-09-09T18:15:24.403Z,50.00
2022-09-09T18:23:05.815Z,47.90
2022-09-09T18:25:39.755Z,53.38
2022-09-09T18:28:09.033Z,46.08
2022-09-09T18:30:41.882Z,45.17
2022-09-09T18:33:11.494Z,46.03
2022-09-09T18:35:40.491Z,46.60
2022-09-09T18:38:10.549Z,45.97
2022-09-09T18:40:46.545Z,38.40
2022-09-09T18:43:18.588Z,44.75
2022-09-09T18:45:48.779Z,41.22
2022-09-09T18:48:17.613Z,34.00
2022-09-09T18:50:46.406Z,36.97
2022-09-09T18:53:15.994Z,33.53
2022-09-09T18:55:44.368Z,31.80
2022-09-09T18:58:14.217Z,35.50
2022-09-09T19:00:49.293Z,29.23
2022-09-09T19:03:18.065Z,30.33
2022-09-09T19:05:48.141Z,26.42
2022-09-09T19:08:16.905Z,31.52
2022-09-09T19:10:46.947Z,31.40
2022-09-09T19:13:16.159Z,33.75
2022-09-09T19:15:44.791Z,39.95
2022-09-09T19:18:15.321Z,40.40
2022-09-09T19:20:44.090Z,39.58
2022-09-09T19:23:12.780Z,49.00
2022-09-09T19:25:41.113Z,44.80
2022-09-09T19:28:10.423Z,45.00
2022-09-09T19:30:39.517Z,42.47
2022-09-09T19:33:08.355Z,45.40
2022-09-09T19:35:38.416Z,47.00
2022-09-09T19:38:07.831Z,41.67
2022-09-09T19:40:37.469Z,39.95
2022-09-09T19:43:07.357Z,36.47
2022-09-09T19:45:35.980Z,39.58
2022-09-09T19:48:06.356Z,38.97
2022-09-09T19:50:37.052Z,38.40
2022-09-09T19:53:07.140Z,35.75
2022-09-09T19:55:40.214Z,36.67
2022-09-09T19:58:08.878Z,37.85
2022-09-09T20:00:39.647Z,38.15
2022-09-09T20:03:19.259Z,36.83
2022-09-09T20:05:50.085Z,40.65
2022-09-09T20:08:21.332Z,32.33
2022-09-09T20:10:53.786Z,37.78
2022-09-09T20:13:22.930Z,49.65
2022-09-09T20:16:00.499Z,41.33
2022-09-09T20:18:34.333Z,46.83
2022-09-09T20:21:05.561Z,37.88
2022-09-09T20:23:35.863Z,43.20
2022-09-09T20:26:06.747Z,45.10
2022-09-09T20:31:08.495Z,46.03
2022-09-09T20:33:37.791Z,47.97
2022-09-09T20:36:12.559Z,53.63
2022-09-09T20:38:47.019Z,51.08
2022-09-09T20:41:18.690Z,48.28
2022-09-09T20:43:49.049Z,45.72
2022-09-09T20:46:19.046Z,46.53
2022-09-09T20:50:04.856Z,39.80
2022-09-09T20:52:33.461Z,42.53
2022-09-09T20:55:53.270Z,41.40
2022-09-09T20:58:23.310Z,39.77
2022-09-09T21:00:53.714Z,36.30
2022-09-09T21:03:22.300Z,37.05
2022-09-09T21:05:51.652Z,34.40
2022-09-09T21:08:20.248Z,30.70
2022-09-09T21:10:49.488Z,32.72
2022-09-09T21:13:18.266Z,30.43
2022-09-09T21:15:48.802Z,30.33
2022-09-09T21:20:48.342Z,29.20
2022-09-09T21:23:18.504Z,31.20
2022-09-09T21:25:47.452Z,23.70
2022-09-09T21:28:16.683Z,32.80
2022-09-09T21:30:51.476Z,31.10
2022-09-09T21:33:22.426Z,34.72
2022-09-09T21:35:51.488Z,27.70
2022-09-09T21:38:22.049Z,33.80
2022-09-09T21:40:50.822Z,30.42
2022-09-09T21:43:20.941Z,27.17
2022-09-09T21:45:54.203Z,29.55
2022-09-09T21:48:23.859Z,30.20
2022-09-09T21:50:52.867Z,25.92
2022-09-09T21:53:21.631Z,24.25
2022-09-09T21:55:50.478Z,30.00
2022-09-09T21:58:19.481Z,28.38
2022-09-09T22:00:50.346Z,27.83
2022-09-09T22:03:19.037Z,25.83
2022-09-09T22:05:51.930Z,23.48
2022-09-09T22:08:22.795Z,24.80
2022-09-09T22:10:51.127Z,27.98
2022-09-09T22:13:20.308Z,25.95
2022-09-09T22:15:51.122Z,26.80
2022-09-09T22:18:19.902Z,23.33
2022-09-09T22:20:48.609Z,21.83
2022-09-09T22:23:17.256Z,26.35
2022-09-09T22:25:45.702Z,28.25
2022-09-09T22:28:14.941Z,24.13
2022-09-09T22:30:44.214Z,31.80
2022-09-09T22:33:14.304Z,27.92
2022-09-09T22:35:43.665Z,21.38
2022-09-09T22:38:12.619Z,24.45
2022-09-09T22:40:41.868Z,22.60
2022-09-09T22:43:15.428Z,25.90
2022-09-09T22:45:44.291Z,23.50
2022-09-09T22:48:14.938Z,28.17
2022-09-09T22:51:56.733Z,31.40
2022-09-09T22:54:27.067Z,28.58
2022-09-09T22:56:55.797Z,27.42
2022-09-09T22:59:24.859Z,30.08
2022-09-09T23:01:53.294Z,29.23
2022-09-09T23:08:46.809Z,29.52
2022-09-09T23:11:15.824Z,29.55
2022-09-09T23:13:50.239Z,28.83
2022-09-09T23:16:20.613Z,26.88
2022-09-09T23:18:52.282Z,28.88
2022-09-09T23:21:26.403Z,30.40
2022-09-09T23:23:56.400Z,29.55
2022-09-09T23:26:26.328Z,33.15
2022-09-09T23:28:55.402Z,24.77
2022-09-09T23:31:26.457Z,25.77
2022-09-09T23:33:55.503Z,29.95
2022-09-09T23:36:26.249Z,29.70
2022-09-09T23:38:56.338Z,21.55
2022-09-09T23:41:25.604Z,21.83
2022-09-09T23:43:54.801Z,22.55
2022-09-09T23:46:25.410Z,24.20
2022-09-09T23:51:25.566Z,21.42
2022-09-09T23:53:57.063Z,20.88
2022-09-09T23:56:27.110Z,20.35
2022-09-09T23:58:56.208Z,25.53
